Etusivu
METAR-TAF:

METAR-TAF

Lentoasemat :

Marén lentoasema

Maré, Uusi-Kaledonia

Leveyspiiri: 21-28-53S, Pituuspiiri: 168-02-15E, korkeus merenpinnasta: 42 m

METAR: puuttuu

Aika: 01:46 (14:46 UTC)

Sääennuste

Tämä raportti tehtiin 3 tuntia ja 46 minuuttia sitten, kello 11.00 UTC
Ennuste voimassa 23. päivästä klo 12 UTC - 24. päivään klo 12 UTC
Tuuli 5 kn pohjoisesta/koillisesta
Näkyvyys 10 km tai enemmän
Hajanaisia pilviä 2000 ft:n korkeudessa
Hajonneita pilviä 4000 ft:n korkeudessa
Hajonneita pilviä 18000 ft:n korkeudessa

TAF: NWWR 231100Z 2312/2412 03005KT 9999 SCT020 BKN040 BKN180

Säähavainnot ja -ennusteet yli 4000 lentoasemalta (METAR- ja TAF-raportit).

Käytössä olevat sääasemat on merkitty karttaan keltaisilla ja punaisilla pisteillä.

Aseta hiiri pisteen päälle nähdäksesi sääaseman nimen.

Klikkaa sitten nähdäksesi säähavainnot ja -ennusteet.

Kartan vaihtaminen: klikkaa mustalla rastilla varustettuja vihreitä pisteitä, niin voit zoomata sisään; viivalla varustettua vihreää pistettä, niin voit zoomata ulos tai vihreitä nuolia, niin pääset viereisille kartoille.


METAR-TAF: